Time;durP1;ratioP1;P1;durP2;ratioP2;P2;SDS_P1;SDS_P2;PMS_P1;PMS_P2;Temp;Humidity;BMP_temperature;BMP_pressure;BME280_temperature;BME280_humidity;BME280_pressure;Samples;Min_cycle;Max_cycle;Signal;HPM_P1;HPM_P2
2022/01/26 00:06:35;;;;;;;;;;;;;;;-1.37;77.54;97776.19;5067599;28;19956;-74
2022/01/26 00:09:02;;;;;;;;;;;;;;;-1.39;76.94;97779.81;5094407;28;19959;-74
2022/01/26 00:11:31;;;;;;;;;;;;;;;-1.43;76.53;97779.19;5094627;28;19957;-74
2022/01/26 00:13:58;;;;;;;;;;;;;;;-1.48;76.48;97774.38;5094455;28;19953;-74
2022/01/26 00:16:36;;;;;;;;;;;;;;;-1.52;76.17;97780.69;5093608;28;19964;-74
2022/01/26 00:19:03;;;;;;;;;;;;;;;-1.56;76.14;97779.25;5094331;28;19950;-74
2022/01/26 00:21:39;;;;;;;;;;;;;;;-1.60;76.61;97775.25;5094198;28;19958;-73
2022/01/26 00:26:48;;;;;;;;;;;;;;;-1.65;76.85;97769.63;5094194;28;19954;-74
2022/01/26 00:29:16;;;;;;;;;;;;;;;-1.67;76.94;97767.16;5094424;28;19961;-74
2022/01/26 00:40:18;;;;;;;;;;;;;;;-1.75;77.04;97773.78;5094203;28;20001;-74
2022/01/26 00:42:46;;;;;;;;;;;;;;;-1.78;76.86;97764.53;5094203;28;19963;-74
2022/01/26 00:45:12;;;;;;;;;;;;;;;-1.77;77.12;97773.06;5093956;28;19954;-74
2022/01/26 00:47:38;;;;;;;;;;;;;;;-1.78;77.12;97763.72;5093926;28;19953;-74
2022/01/26 00:50:09;;;;;;;;;;;;;;;-1.79;77.23;97769.78;5093739;28;19952;-74
2022/01/26 00:52:43;;;;;;;;;;;;;;;-1.82;77.30;97765.66;5093973;28;19955;-75
2022/01/26 00:55:11;;;;;;;;;;;;;;;-1.86;77.17;97762.47;5093934;28;19951;-74
2022/01/26 00:57:38;;;;;;;;;;;;;;;-1.86;76.93;97761.66;5093967;28;19972;-74
2022/01/26 01:00:10;;;;;;;;;;;;;;;-1.86;76.55;97766.81;5093898;28;19954;-74
2022/01/26 01:02:35;;;;;;;;;;;;;;;-1.88;76.73;97777.19;5075446;28;19970;-75
2022/01/26 01:05:08;;;;;;;;;;;;;;;-1.91;76.50;97772.28;5093927;28;19953;-74
2022/01/26 01:07:37;;;;;;;;;;;;;;;-1.93;76.48;97769.00;5093638;28;19951;-75
2022/01/26 01:10:04;;;;;;;;;;;;;;;-1.95;76.83;97775.16;5058985;28;20312;-74
2022/01/26 01:12:32;;;;;;;;;;;;;;;-1.98;77.09;97781.31;5093494;28;19959;-75
2022/01/26 01:14:58;;;;;;;;;;;;;;;-1.99;76.95;97776.31;5075794;28;19959;-73
2022/01/26 01:17:31;;;;;;;;;;;;;;;-2.01;76.99;97775.59;5093492;28;19960;-73
2022/01/26 01:20:12;;;;;;;;;;;;;;;-2.04;77.47;97776.63;5079894;28;20420;-72
2022/01/26 01:23:08;;;;;;;;;;;;;;;-2.08;76.88;97772.59;5093391;28;19974;-73
2022/01/26 01:33:04;;;;;;;;;;;;;;;-2.13;76.88;97784.97;5093395;28;20402;-74
2022/01/26 01:35:35;;;;;;;;;;;;;;;-2.13;77.12;97787.53;5095290;28;19954;-75
2022/01/26 01:38:09;;;;;;;;;;;;;;;-2.14;77.56;97791.00;5096194;28;19956;-72
2022/01/26 01:40:39;;;;;;;;;;;;;;;-2.16;77.65;97793.72;5097519;28;19972;-74
2022/01/26 01:43:05;;;;;;;;;;;;;;;-2.18;77.19;97785.28;5097646;28;19963;-72
2022/01/26 01:45:36;;;;;;;;;;;;;;;-2.17;77.13;97796.38;5082769;28;19961;-72
2022/01/26 01:48:02;;;;;;;;;;;;;;;-2.13;82.84;97792.69;5097078;28;19959;-73
2022/01/26 01:50:29;;;;;;;;;;;;;;;-1.93;85.19;97786.16;5097238;28;19952;-76
2022/01/26 01:53:02;;;;;;;;;;;;;;;-1.87;79.92;97790.88;5097397;28;19963;-74
2022/01/26 01:55:29;;;;;;;;;;;;;;;-1.90;78.24;97784.19;5080161;28;19964;-74
2022/01/26 01:57:58;;;;;;;;;;;;;;;-1.96;77.41;97787.19;5097255;28;19989;-75
2022/01/26 02:00:25;;;;;;;;;;;;;;;-2.01;77.66;97788.44;5097446;28;20351;-75
2022/01/26 02:02:51;;;;;;;;;;;;;;;-2.08;77.67;97794.00;5095962;28;19973;-74
2022/01/26 02:05:17;;;;;;;;;;;;;;;-2.12;78.38;97784.03;5078855;28;19957;-76
2022/01/26 02:07:43;;;;;;;;;;;;;;;-2.15;78.49;97789.38;5097254;28;19960;-74
2022/01/26 02:10:10;;;;;;;;;;;;;;;-2.16;78.72;97785.16;5096657;28;19958;-75
2022/01/26 02:12:40;;;;;;;;;;;;;;;-2.17;78.40;97786.09;5097086;28;19957;-75
2022/01/26 02:15:32;;;;;;;;;;;;;;;-2.19;78.49;97775.09;5096752;28;19951;-75
2022/01/26 02:21:01;;;;;;;;;;;;;;;-2.20;78.57;97783.75;5096924;28;20436;-75
2022/01/26 02:55:53;;;;;;;;;;;;;;;-2.58;77.62;97762.28;5096121;28;19959;-74
2022/01/26 03:03:43;;;;;;;;;;;;;;;-2.79;79.30;97776.53;5075572;28;20365;-73
2022/01/26 03:06:15;;;;;;;;;;;;;;;-2.87;79.69;97777.88;5067053;28;19963;-74
2022/01/26 03:08:48;;;;;;;;;;;;;;;-2.95;79.98;97787.00;5075669;28;19962;-73
2022/01/26 03:11:15;;;;;;;;;;;;;;;-3.08;80.95;97787.00;5075352;28;19953;-74
2022/01/26 03:13:48;;;;;;;;;;;;;;;-3.14;80.57;97787.38;5075422;28;19971;-74
2022/01/26 03:16:26;;;;;;;;;;;;;;;-3.17;81.49;97795.25;5075708;28;19959;-74
2022/01/26 03:19:16;;;;;;;;;;;;;;;-3.21;82.14;97792.09;5075364;28;19961;-74
2022/01/26 03:28:15;;;;;;;;;;;;;;;-3.28;83.53;97773.69;5062010;28;20338;-74
2022/01/26 03:30:04;;;;;;;;;;;;;;;-3.23;82.54;97767.44;5073497;28;20429;-73
2022/01/26 03:37:55;;;;;;;;;;;;;;;-3.19;81.91;97761.19;5044134;28;19957;-73
2022/01/26 03:40:29;;;;;;;;;;;;;;;-3.19;82.18;97756.91;5075007;28;20425;-72
2022/01/26 03:42:56;;;;;;;;;;;;;;;-3.18;81.57;97765.41;5074697;28;20011;-74
2022/01/26 03:45:22;;;;;;;;;;;;;;;-3.20;80.93;97764.69;5057045;28;19952;-72
2022/01/26 03:47:48;;;;;;;;;;;;;;;-3.21;80.84;97763.88;5074586;28;20289;-73
2022/01/26 03:50:14;;;;;;;;;;;;;;;-3.20;81.56;97769.81;5074601;28;20048;-74
2022/01/26 03:52:40;;;;;;;;;;;;;;;-3.23;81.17;97772.56;5074531;28;19994;-74
2022/01/26 03:55:06;;;;;;;;;;;;;;;-3.28;81.75;97773.69;5074445;28;19955;-74
2022/01/26 03:57:32;;;;;;;;;;;;;;;-3.27;81.29;97787.34;5083414;28;19981;-74
2022/01/26 03:59:57;;;;;;;;;;;;;;;-3.31;82.18;97791.84;5093749;28;19957;-74
2022/01/26 04:02:23;;;;;;;;;;;;;;;-3.34;81.51;97783.50;5076773;28;19965;-74
2022/01/26 04:04:55;;;;;;;;;;;;;;;-3.41;82.18;97787.41;5094579;28;20019;-74
2022/01/26 04:07:22;;;;;;;;;;;;;;;-3.48;82.20;97784.41;5077616;28;19955;-74
2022/01/26 04:09:47;;;;;;;;;;;;;;;-3.53;83.08;97789.84;5094621;28;19962;-74
2022/01/26 04:12:13;;;;;;;;;;;;;;;-3.56;82.79;97787.44;5094434;28;20455;-74
2022/01/26 04:14:42;;;;;;;;;;;;;;;-3.58;83.28;97789.28;5059899;28;19962;-74
2022/01/26 04:17:09;;;;;;;;;;;;;;;-3.48;90.22;97797.22;5094346;28;19962;-74
2022/01/26 04:19:37;;;;;;;;;;;;;;;-3.31;86.19;97794.41;5094605;28;19952;-73
2022/01/26 04:22:17;;;;;;;;;;;;;;;-3.27;83.72;97788.16;5094076;28;19965;-75
2022/01/26 04:24:49;;;;;;;;;;;;;;;-3.26;82.61;97794.13;5076382;28;19965;-73
2022/01/26 04:29:40;;;;;;;;;;;;;;;-3.28;81.45;97786.50;5094235;28;19960;-72
2022/01/26 04:32:08;;;;;;;;;;;;;;;-3.29;81.91;97792.56;5094136;28;19968;-74
2022/01/26 04:34:35;;;;;;;;;;;;;;;-3.29;81.76;97796.88;5076171;28;19959;-74
2022/01/26 04:39:52;;;;;;;;;;;;;;;-3.25;82.01;97793.22;5094042;28;20321;-73
2022/01/26 04:42:27;;;;;;;;;;;;;;;-3.22;81.91;97802.44;5094293;28;19952;-73
2022/01/26 04:45:03;;;;;;;;;;;;;;;-3.19;81.87;97799.66;5094022;28;19968;-74
2022/01/26 04:47:29;;;;;;;;;;;;;;;-3.17;81.54;97793.53;5094130;28;19955;-75
2022/01/26 04:49:55;;;;;;;;;;;;;;;-3.15;81.67;97791.69;5093776;28;19951;-72
2022/01/26 04:52:21;;;;;;;;;;;;;;;-3.11;81.38;97792.31;5092411;28;19957;-74
2022/01/26 04:54:47;;;;;;;;;;;;;;;-3.08;81.26;97792.13;5093827;28;20044;-73
2022/01/26 04:57:13;;;;;;;;;;;;;;;-3.06;80.97;97788.53;5093856;28;20004;-72
2022/01/26 04:59:38;;;;;;;;;;;;;;;-3.03;81.46;97791.81;5093795;28;20440;-72
2022/01/26 05:02:04;;;;;;;;;;;;;;;-3.00;81.59;97799.31;5092690;28;19962;-73
2022/01/26 05:04:30;;;;;;;;;;;;;;;-2.98;81.34;97795.75;5094266;28;19973;-74
2022/01/26 05:06:56;;;;;;;;;;;;;;;-2.98;82.12;97798.31;5093589;28;20405;-74
2022/01/26 05:09:22;;;;;;;;;;;;;;;-2.94;81.96;97796.34;5093455;28;19955;-74
2022/01/26 05:11:51;;;;;;;;;;;;;;;-2.97;81.61;97791.44;5093768;28;20294;-74
2022/01/26 05:14:17;;;;;;;;;;;;;;;-3.05;80.12;97797.03;5093695;28;20453;-75
2022/01/26 05:16:43;;;;;;;;;;;;;;;-3.22;80.32;97798.13;5093534;28;19961;-74
2022/01/26 05:19:09;;;;;;;;;;;;;;;-3.40;81.12;97801.84;5093484;28;19954;-74
2022/01/26 05:21:36;;;;;;;;;;;;;;;-3.50;81.28;97797.31;5093686;28;19955;-74
2022/01/26 05:24:02;;;;;;;;;;;;;;;-3.56;81.46;97797.72;5093545;28;19970;-74
2022/01/26 05:26:28;;;;;;;;;;;;;;;-3.57;82.10;97798.63;5093475;28;20021;-74
2022/01/26 05:28:53;;;;;;;;;;;;;;;-3.51;82.78;97794.84;5093525;28;20055;-74
2022/01/26 05:31:19;;;;;;;;;;;;;;;-3.51;82.20;97794.84;5093702;28;19954;-75
2022/01/26 05:33:46;;;;;;;;;;;;;;;-3.56;82.53;97795.13;5093488;28;20363;-74
2022/01/26 05:36:12;;;;;;;;;;;;;;;-3.69;82.07;97797.66;5093545;28;19952;-74
2022/01/26 05:38:38;;;;;;;;;;;;;;;-3.76;84.13;97795.56;5075509;28;20299;-74
2022/01/26 05:41:04;;;;;;;;;;;;;;;-3.74;84.70;97797.13;5093609;28;19995;-74
2022/01/26 05:43:31;;;;;;;;;;;;;;;-3.73;84.01;97788.50;5093154;28;20320;-74
2022/01/26 05:46:03;;;;;;;;;;;;;;;-3.69;84.31;97794.28;5093404;28;19952;-74
2022/01/26 05:48:29;;;;;;;;;;;;;;;-3.70;84.45;97790.03;5093686;28;19955;-76
2022/01/26 05:51:04;;;;;;;;;;;;;;;-3.72;84.40;97790.13;5093342;28;19953;-74
2022/01/26 05:53:31;;;;;;;;;;;;;;;-3.79;84.30;97790.63;5093237;28;19948;-74
2022/01/26 05:55:58;;;;;;;;;;;;;;;-3.86;84.67;97795.31;5075012;28;19947;-74
2022/01/26 05:58:24;;;;;;;;;;;;;;;-3.82;85.46;97790.81;5093299;28;20342;-74
2022/01/26 06:00:50;;;;;;;;;;;;;;;-3.73;84.86;97787.69;5074959;28;20447;-74
2022/01/26 06:03:16;;;;;;;;;;;;;;;-3.68;85.12;97788.22;5075469;28;19959;-74
2022/01/26 06:05:42;;;;;;;;;;;;;;;-3.62;84.78;97792.13;5093528;28;20409;-74
2022/01/26 06:08:08;;;;;;;;;;;;;;;-3.56;85.01;97796.88;5093170;28;19952;-75
2022/01/26 06:10:34;;;;;;;;;;;;;;;-3.50;84.97;97799.06;5093171;28;19951;-75
2022/01/26 06:13:00;;;;;;;;;;;;;;;-3.42;83.73;97808.81;5093118;28;20301;-75
2022/01/26 06:15:26;;;;;;;;;;;;;;;-3.38;83.65;97793.16;5093104;28;19951;-75
2022/01/26 06:17:52;;;;;;;;;;;;;;;-3.35;83.60;97798.09;5093198;28;19963;-74
2022/01/26 06:20:18;;;;;;;;;;;;;;;-3.32;84.13;97794.50;5093025;28;19959;-75
2022/01/26 06:22:44;;;;;;;;;;;;;;;-3.28;83.85;97795.94;5095173;28;19947;-74
2022/01/26 06:25:10;;;;;;;;;;;;;;;-3.33;83.91;97803.13;5078501;28;19970;-74
2022/01/26 06:27:37;;;;;;;;;;;;;;;-3.41;83.93;97802.78;5096465;28;19950;-74
2022/01/26 06:30:04;;;;;;;;;;;;;;;-3.42;84.83;97794.28;5096481;28;19961;-75
2022/01/26 06:32:30;;;;;;;;;;;;;;;-3.37;84.75;97788.84;5087913;28;19955;-74
2022/01/26 06:34:56;;;;;;;;;;;;;;;-3.32;84.57;97784.25;5096292;28;19952;-74
2022/01/26 06:37:22;;;;;;;;;;;;;;;-3.31;84.86;97789.28;5078306;28;19959;-74
2022/01/26 06:39:48;;;;;;;;;;;;;;;-3.32;84.74;97784.25;5096413;28;20301;-74
2022/01/26 06:42:18;;;;;;;;;;;;;;;-3.31;84.71;97780.78;5096180;28;19986;-74
2022/01/26 06:44:57;;;;;;;;;;;;;;;-3.32;84.83;97794.50;5084929;28;20339;-74
2022/01/26 06:49:52;;;;;;;;;;;;;;;-3.45;84.77;97775.69;5096025;28;20419;-73
2022/01/26 06:52:18;;;;;;;;;;;;;;;-3.49;85.20;97775.06;5096133;28;19951;-73
2022/01/26 06:54:44;;;;;;;;;;;;;;;-3.49;84.65;97796.38;5095886;28;20439;-74
2022/01/26 06:57:10;;;;;;;;;;;;;;;-3.52;84.69;97794.03;5095909;28;20039;-74
2022/01/26 06:59:36;;;;;;;;;;;;;;;-3.54;85.11;97801.00;5095923;28;19961;-74
2022/01/26 07:02:02;;;;;;;;;;;;;;;-3.56;86.10;97789.19;5095996;28;19960;-75
2022/01/26 07:04:27;;;;;;;;;;;;;;;-3.51;85.67;97792.28;5095716;28;20515;-73
2022/01/26 07:06:53;;;;;;;;;;;;;;;-3.42;85.96;97790.88;5096017;28;19976;-73
2022/01/26 07:09:19;;;;;;;;;;;;;;;-3.39;85.40;97796.63;5094612;28;19953;-73
2022/01/26 07:11:46;;;;;;;;;;;;;;;-3.37;85.33;97796.56;5095865;28;20422;-72
2022/01/26 07:14:22;;;;;;;;;;;;;;;-3.35;84.67;97795.53;5078046;28;20419;-72
2022/01/26 07:22:16;;;;;;;;;;;;;;;-3.41;85.83;97790.78;5095645;28;19952;-72
2022/01/26 07:24:42;;;;;;;;;;;;;;;-3.37;85.74;97796.56;5095302;28;19977;-72
2022/01/26 07:27:10;;;;;;;;;;;;;;;-3.34;85.09;97804.88;5095836;28;19955;-72
2022/01/26 07:29:36;;;;;;;;;;;;;;;-3.34;84.67;97816.88;5095292;28;19955;-73
2022/01/26 07:32:05;;;;;;;;;;;;;;;-3.36;84.70;97818.69;5095122;28;20311;-73
2022/01/26 07:34:31;;;;;;;;;;;;;;;-3.37;85.11;97814.50;5095215;28;19943;-73
2022/01/26 07:37:02;;;;;;;;;;;;;;;-3.36;84.71;97823.84;5095038;28;19959;-72
2022/01/26 07:39:43;;;;;;;;;;;;;;;-3.39;83.81;97818.91;5095464;28;19952;-73
2022/01/26 07:42:10;;;;;;;;;;;;;;;-3.49;84.60;97819.47;5076950;28;19963;-74
2022/01/26 07:44:36;;;;;;;;;;;;;;;-3.54;84.35;97820.69;5094914;28;19975;-74
2022/01/26 07:47:02;;;;;;;;;;;;;;;-3.65;85.39;97817.97;5076946;28;19963;-74
2022/01/26 07:49:28;;;;;;;;;;;;;;;-3.73;85.82;97818.44;5095244;28;19958;-74
2022/01/26 07:51:54;;;;;;;;;;;;;;;-3.74;86.30;97830.44;5094920;28;19959;-74
2022/01/26 07:54:21;;;;;;;;;;;;;;;-3.69;86.41;97817.34;5095169;28;19961;-74
2022/01/26 07:56:47;;;;;;;;;;;;;;;-3.58;86.53;97824.38;5076276;28;20455;-73
2022/01/26 07:59:13;;;;;;;;;;;;;;;-3.46;86.91;97844.13;5095094;28;19961;-74
2022/01/26 08:01:39;;;;;;;;;;;;;;;-3.33;86.06;97833.91;5094945;28;19963;-74
2022/01/26 08:04:05;;;;;;;;;;;;;;;-3.24;86.04;97828.19;5094545;28;19967;-74
2022/01/26 08:06:31;;;;;;;;;;;;;;;-3.17;84.93;97824.34;5094947;28;20058;-74
2022/01/26 08:08:57;;;;;;;;;;;;;;;-3.14;84.64;97823.31;5094663;28;19985;-74
2022/01/26 08:11:24;;;;;;;;;;;;;;;-3.11;84.89;97834.22;5076615;28;20455;-75
2022/01/26 08:13:51;;;;;;;;;;;;;;;-3.04;84.82;97844.06;5094609;28;19974;-77
2022/01/26 08:16:17;;;;;;;;;;;;;;;-3.03;85.21;97846.53;5094452;28;19957;-74
2022/01/26 08:18:43;;;;;;;;;;;;;;;-2.98;85.32;97836.81;5076663;28;19962;-74
2022/01/26 08:21:11;;;;;;;;;;;;;;;-2.93;84.33;97849.34;5094809;28;20285;-74
2022/01/26 08:23:37;;;;;;;;;;;;;;;-2.92;84.72;97850.97;5094405;28;19987;-74
2022/01/26 08:26:04;;;;;;;;;;;;;;;-2.88;85.11;97853.28;5094356;28;19971;-74
2022/01/26 08:28:39;;;;;;;;;;;;;;;-2.86;84.70;97833.44;5094422;28;19966;-74
2022/01/26 08:31:05;;;;;;;;;;;;;;;-2.82;83.75;97854.59;5094721;28;19961;-74
2022/01/26 08:33:31;;;;;;;;;;;;;;;-2.80;84.71;97857.88;5076062;28;20319;-74
2022/01/26 08:35:57;;;;;;;;;;;;;;;-2.74;85.14;97857.50;5094224;28;20044;-74
2022/01/26 08:38:24;;;;;;;;;;;;;;;-2.66;84.98;97859.56;5094186;28;19963;-74
2022/01/26 08:40:50;;;;;;;;;;;;;;;-2.61;84.64;97867.78;5094077;28;20292;-73
2022/01/26 08:43:16;;;;;;;;;;;;;;;-2.57;84.34;97868.41;5094322;28;19954;-74
2022/01/26 08:45:42;;;;;;;;;;;;;;;-2.57;84.48;97864.09;5075396;28;19977;-75
2022/01/26 08:48:08;;;;;;;;;;;;;;;-2.54;85.32;97870.78;5094220;28;19947;-74
2022/01/26 08:50:34;;;;;;;;;;;;;;;-2.57;84.20;97881.25;5075960;28;19946;-74
2022/01/26 08:53:00;;;;;;;;;;;;;;;-2.60;84.25;97889.16;5093824;28;20406;-74
2022/01/26 08:55:26;;;;;;;;;;;;;;;-2.66;84.23;97887.81;5094293;28;19944;-74
2022/01/26 08:57:52;;;;;;;;;;;;;;;-2.69;84.38;97878.56;5093502;28;19982;-74
2022/01/26 09:00:18;;;;;;;;;;;;;;;-2.67;84.47;97866.47;5094137;28;19961;-74
2022/01/26 09:02:46;;;;;;;;;;;;;;;-2.67;85.30;97874.16;5075688;28;19951;-74
2022/01/26 09:05:13;;;;;;;;;;;;;;;-2.65;84.78;97881.75;5075852;28;19964;-74
2022/01/26 09:07:42;;;;;;;;;;;;;;;-2.18;100.00;97880.38;5093771;28;19965;-74
2022/01/26 09:10:09;;;;;;;;;;;;;;;-2.03;90.06;97885.41;5093514;28;19952;-74
2022/01/26 09:12:38;;;;;;;;;;;;;;;-1.98;85.84;97863.59;5094004;28;19948;-74
2022/01/26 09:15:06;;;;;;;;;;;;;;;-1.96;84.21;97884.88;5093692;28;19957;-74
2022/01/26 09:17:34;;;;;;;;;;;;;;;-2.03;83.79;97885.41;5093753;28;19957;-74
2022/01/26 09:20:02;;;;;;;;;;;;;;;-2.15;83.56;97880.16;5093598;28;19952;-74
2022/01/26 09:22:31;;;;;;;;;;;;;;;-2.19;83.47;97883.84;5093725;28;19977;-74
2022/01/26 09:24:58;;;;;;;;;;;;;;;-2.22;83.53;97885.84;5093979;28;19982;-74
2022/01/26 09:27:24;;;;;;;;;;;;;;;-2.21;83.12;97910.59;5075698;28;19966;-74
2022/01/26 09:29:53;;;;;;;;;;;;;;;-2.22;83.88;97920.06;5093768;28;19956;-74
2022/01/26 09:32:21;;;;;;;;;;;;;;;-2.23;83.25;97920.16;5093633;28;20330;-74
2022/01/26 09:34:47;;;;;;;;;;;;;;;-2.29;83.56;97916.22;5093413;28;20405;-74
2022/01/26 09:37:14;;;;;;;;;;;;;;;-2.28;83.72;97908.41;5093305;28;19950;-74
2022/01/26 09:39:41;;;;;;;;;;;;;;;-2.27;83.80;97902.38;5075434;28;19955;-74
2022/01/26 09:42:07;;;;;;;;;;;;;;;-2.23;83.53;97890.13;5093743;28;19951;-74
2022/01/26 09:44:33;;;;;;;;;;;;;;;-2.14;83.49;97880.97;5093786;28;19985;-74
2022/01/26 09:46:59;;;;;;;;;;;;;;;-2.08;83.03;97881.41;5093441;28;20420;-74
2022/01/26 09:49:33;;;;;;;;;;;;;;;-2.01;82.91;97881.00;5093407;28;19960;-74
2022/01/26 09:52:01;;;;;;;;;;;;;;;-2.01;82.64;97886.13;5093255;28;19951;-74
2022/01/26 09:54:30;;;;;;;;;;;;;;;-1.99;83.27;97879.97;5093174;28;20442;-74
2022/01/26 09:57:02;;;;;;;;;;;;;;;-1.97;82.43;97877.28;5093980;28;19993;-74
2022/01/26 09:59:29;;;;;;;;;;;;;;;-2.02;83.31;97876.78;5097392;28;19966;-74
2022/01/26 10:01:55;;;;;;;;;;;;;;;-2.09;83.65;97876.38;5097020;28;20432;-74
2022/01/26 10:04:26;;;;;;;;;;;;;;;-2.06;83.08;97858.16;5097066;28;20436;-75
2022/01/26 10:06:59;;;;;;;;;;;;;;;-2.03;83.28;97854.56;5097436;28;19960;-74
2022/01/26 10:09:53;;;;;;;;;;;;;;;-1.96;83.19;97843.75;5096817;28;19956;-74
2022/01/26 10:15:33;;;;;;;;;;;;;;;-1.81;83.47;97851.34;5051131;28;20418;-74
2022/01/26 10:18:00;;;;;;;;;;;;;;;-1.72;82.95;97851.53;5085675;28;19949;-74
2022/01/26 10:20:26;;;;;;;;;;;;;;;-1.60;82.23;97851.63;5096592;28;19961;-75
2022/01/26 10:22:52;;;;;;;;;;;;;;;-1.54;82.02;97843.47;5096605;28;19960;-74
2022/01/26 10:25:20;;;;;;;;;;;;;;;-1.58;81.30;97842.84;5096415;28;19965;-74
2022/01/26 10:27:48;;;;;;;;;;;;;;;-1.66;81.75;97845.97;5078316;28;19964;-74
2022/01/26 10:30:15;;;;;;;;;;;;;;;-1.70;81.97;97843.69;5096610;28;19966;-78
2022/01/26 10:32:42;;;;;;;;;;;;;;;-1.65;82.36;97844.22;5095766;28;19955;-74
2022/01/26 10:35:09;;;;;;;;;;;;;;;-1.60;82.62;97843.88;5061358;28;19956;-74
2022/01/26 10:37:35;;;;;;;;;;;;;;;-1.63;82.37;97840.59;5096482;28;19960;-74
2022/01/26 10:40:10;;;;;;;;;;;;;;;-1.63;82.13;97838.03;5096388;28;19959;-74
2022/01/26 10:42:36;;;;;;;;;;;;;;;-1.78;82.23;97833.97;5078564;28;19956;-75
2022/01/26 10:45:14;;;;;;;;;;;;;;;-1.87;82.60;97826.88;5096363;28;19971;-73
2022/01/26 10:47:46;;;;;;;;;;;;;;;-1.93;82.28;97823.00;5069413;28;19963;-74
2022/01/26 10:53:07;;;;;;;;;;;;;;;-1.87;82.91;97804.56;5096666;28;19954;-74
2022/01/26 10:55:35;;;;;;;;;;;;;;;-1.92;83.10;97798.09;5096011;28;19954;-74
2022/01/26 10:58:02;;;;;;;;;;;;;;;-1.89;83.93;97808.16;5077964;28;19977;-74
2022/01/26 11:00:32;;;;;;;;;;;;;;;-1.85;83.93;97810.44;5061161;28;20400;-74
2022/01/26 11:02:58;;;;;;;;;;;;;;;-1.76;83.32;97821.81;5096011;28;19958;-74
2022/01/26 11:05:25;;;;;;;;;;;;;;;-1.71;83.27;97826.63;5096165;28;19971;-74
2022/01/26 11:07:51;;;;;;;;;;;;;;;-1.64;82.68;97823.53;5095349;28;19958;-74
2022/01/26 11:10:18;;;;;;;;;;;;;;;-1.54;82.79;97831.41;5095827;28;19961;-74
2022/01/26 11:12:44;;;;;;;;;;;;;;;-1.47;82.49;97824.94;5095628;28;19960;-77
2022/01/26 11:15:12;;;;;;;;;;;;;;;-1.41;82.25;97835.69;5096008;28;19956;-74
2022/01/26 11:17:42;;;;;;;;;;;;;;;-1.47;81.51;97837.78;5095667;28;19951;-74
2022/01/26 11:20:22;;;;;;;;;;;;;;;-1.58;81.39;97836.88;5095617;28;19961;-74
2022/01/26 11:22:49;;;;;;;;;;;;;;;-1.63;82.04;97825.16;5095374;28;19952;-74
2022/01/26 11:25:15;;;;;;;;;;;;;;;-1.72;82.71;97843.81;5095503;28;19974;-74
2022/01/26 11:27:41;;;;;;;;;;;;;;;-1.72;83.40;97848.97;5095468;28;19968;-74
2022/01/26 11:30:15;;;;;;;;;;;;;;;-1.65;83.39;97852.75;5095403;28;19982;-74
2022/01/26 11:32:51;;;;;;;;;;;;;;;-1.58;83.81;97850.56;5077312;28;19955;-74
2022/01/26 11:35:18;;;;;;;;;;;;;;;-1.51;83.71;97859.53;5095328;28;20299;-74
2022/01/26 11:37:49;;;;;;;;;;;;;;;-1.50;83.97;97858.56;5095114;28;19954;-74
2022/01/26 11:46:09;;;;;;;;;;;;;;;-1.35;83.54;97850.72;5094855;28;20445;-74
2022/01/26 11:48:35;;;;;;;;;;;;;;;-1.28;84.15;97857.91;5094933;28;19954;-74
2022/01/26 11:51:03;;;;;;;;;;;;;;;-1.23;83.75;97842.13;5094796;28;19959;-74
2022/01/26 11:53:29;;;;;;;;;;;;;;;-1.20;84.02;97846.22;5094064;28;19954;-74
2022/01/26 11:56:03;;;;;;;;;;;;;;;-1.19;83.24;97842.75;5094671;28;19955;-74
2022/01/26 11:58:44;;;;;;;;;;;;;;;-1.17;83.13;97838.31;5095024;28;19974;-74
2022/01/26 12:01:16;;;;;;;;;;;;;;;-1.15;83.75;97842.41;5095032;28;20352;-74
2022/01/26 12:03:47;;;;;;;;;;;;;;;-1.16;83.48;97843.31;5094884;28;19957;-74
2022/01/26 12:06:22;;;;;;;;;;;;;;;-1.15;83.52;97851.88;5094918;28;19965;-74
2022/01/26 12:08:48;;;;;;;;;;;;;;;-1.14;83.44;97830.34;5094660;28;19953;-74
2022/01/26 12:11:16;;;;;;;;;;;;;;;-1.11;84.00;97835.28;5094596;28;20437;-74
2022/01/26 12:13:44;;;;;;;;;;;;;;;-1.12;84.09;97825.91;5094536;28;19961;-77
2022/01/26 12:16:15;;;;;;;;;;;;;;;-1.11;84.10;97828.38;5094363;28;20430;-74
2022/01/26 12:35:15;;;;;;;;;;;;;;;-0.93;84.73;97831.38;5094698;28;20426;-74
2022/01/26 12:38:07;;;;;;;;;;;;;;;-0.92;84.50;97829.63;5094093;28;19952;-74
2022/01/26 12:43:14;;;;;;;;;;;;;;;-0.69;91.50;97825.38;5094347;28;19946;-76
2022/01/26 12:45:40;;;;;;;;;;;;;;;-0.08;100.00;97819.97;5094506;28;19962;-74
2022/01/26 12:48:08;;;;;;;;;;;;;;;0.04;89.79;97813.84;5093919;28;19955;-74
2022/01/26 12:50:34;;;;;;;;;;;;;;;0.00;85.91;97812.47;5093114;28;19956;-74
2022/01/26 12:53:00;;;;;;;;;;;;;;;-0.10;84.31;97809.75;5093741;28;20330;-74
2022/01/26 12:55:28;;;;;;;;;;;;;;;-0.23;84.10;97817.59;5075713;28;19956;-75
2022/01/26 12:57:54;;;;;;;;;;;;;;;-0.35;84.34;97805.63;5093704;28;19985;-74
2022/01/26 13:00:21;;;;;;;;;;;;;;;-0.41;84.05;97811.25;5093653;28;20424;-74
2022/01/26 13:02:47;;;;;;;;;;;;;;;-0.43;84.59;97816.50;5093767;28;19959;-75
2022/01/26 13:05:16;;;;;;;;;;;;;;;-0.47;85.20;97812.53;5093839;28;19963;-74
2022/01/26 13:07:43;;;;;;;;;;;;;;;-0.47;86.00;97822.00;5093899;28;19947;-74
2022/01/26 13:10:13;;;;;;;;;;;;;;;-0.50;84.81;97811.94;5093977;28;19965;-74
2022/01/26 13:12:38;;;;;;;;;;;;;;;-0.51;84.51;97816.25;5074914;28;20319;-74
2022/01/26 13:15:21;;;;;;;;;;;;;;;-0.52;85.61;97814.63;5093570;28;19963;-74
2022/01/26 13:17:55;;;;;;;;;;;;;;;-0.54;85.42;97808.78;5093483;28;20311;-74
2022/01/26 13:20:42;;;;;;;;;;;;;;;-0.54;84.92;97803.63;5093787;28;19974;-74
2022/01/26 13:23:27;;;;;;;;;;;;;;;-0.54;84.74;97793.31;5084113;28;19958;-75
2022/01/26 13:26:05;;;;;;;;;;;;;;;-0.46;84.03;97795.31;5093623;28;19969;-74
2022/01/26 13:34:07;;;;;;;;;;;;;;;-0.34;84.50;97811.59;5097527;28;19971;-74
2022/01/26 13:52:35;;;;;;;;;;;;;;;-0.39;85.53;97813.72;5097459;28;19970;-75
2022/01/26 13:57:53;;;;;;;;;;;;;;;-0.45;85.72;97822.72;5096922;28;19978;-73
2022/01/26 14:00:22;;;;;;;;;;;;;;;-0.47;85.98;97807.38;5096994;28;19978;-73
2022/01/26 14:02:51;;;;;;;;;;;;;;;-0.46;85.99;97806.44;5096952;28;19962;-74
2022/01/26 14:05:18;;;;;;;;;;;;;;;-0.44;86.13;97804.56;5096874;28;20329;-74
2022/01/26 14:07:44;;;;;;;;;;;;;;;-0.42;86.48;97802.69;5096754;28;19959;-74
2022/01/26 14:10:09;;;;;;;;;;;;;;;-0.42;86.01;97792.41;5096935;28;20013;-74
2022/01/26 14:12:40;;;;;;;;;;;;;;;-0.45;86.34;97796.94;5096673;28;19963;-74
2022/01/26 14:15:08;;;;;;;;;;;;;;;-0.46;87.49;97800.47;5096894;28;19953;-74
2022/01/26 14:23:18;;;;;;;;;;;;;;;-0.50;86.55;97804.22;5096587;28;19967;-74
2022/01/26 14:25:47;;;;;;;;;;;;;;;-0.51;87.17;97800.78;5096647;28;19968;-74
2022/01/26 14:28:16;;;;;;;;;;;;;;;-0.50;87.35;97791.34;5078363;28;19957;-75
2022/01/26 14:30:54;;;;;;;;;;;;;;;-0.49;86.67;97785.22;5096673;28;20420;-74
2022/01/26 14:33:48;;;;;;;;;;;;;;;-0.46;86.73;97801.28;5096452;28;19958;-74
2022/01/26 14:54:58;;;;;;;;;;;;;;;-0.63;86.86;97835.19;5096439;28;19964;-74
2022/01/26 15:09:17;;;;;;;;;;;;;;;-0.77;88.12;97849.13;5095864;28;19958;-74
2022/01/26 15:40:23;;;;;;;;;;;;;;;-0.97;87.88;97857.44;5086156;28;19955;-74
2022/01/26 15:50:50;;;;;;;;;;;;;;;-0.98;87.18;97854.06;5085507;28;20331;-74
2022/01/26 16:17:40;;;;;;;;;;;;;;;-0.95;87.79;97847.88;5083225;28;19959;-74
2022/01/26 16:37:16;;;;;;;;;;;;;;;-0.65;86.33;97817.31;5094068;28;20301;-75
2022/01/26 16:39:23;;;;;;;;;;;;;;;-0.71;86.42;97820.34;5078807;28;19965;-74
2022/01/26 17:11:09;;;;;;;;;;;;;;;-0.61;86.25;97846.22;5085463;28;19969;-74
2022/01/26 18:16:29;;;;;;;;;;;;;;;-0.33;85.48;97839.03;5093027;28;19957;-74
2022/01/26 18:33:10;;;;;;;;;;;;;;;-0.64;86.95;97841.31;5096586;28;20391;-74
2022/01/26 18:49:16;;;;;;;;;;;;;;;-0.85;87.92;97841.94;5096302;28;19951;-75
2022/01/26 18:51:44;;;;;;;;;;;;;;;-0.87;88.23;97833.50;5096263;28;19963;-75
2022/01/26 18:54:11;;;;;;;;;;;;;;;-0.87;87.99;97841.22;5096167;28;19965;-75
2022/01/26 18:56:39;;;;;;;;;;;;;;;-0.82;87.90;97848.59;5095578;28;19962;-75
2022/01/26 18:59:05;;;;;;;;;;;;;;;-0.77;87.93;97850.88;5095941;28;19962;-75
2022/01/26 19:01:32;;;;;;;;;;;;;;;-0.72;87.77;97849.59;5095677;28;19950;-74
2022/01/26 19:03:58;;;;;;;;;;;;;;;-0.68;87.66;97843.28;5096097;28;19961;-77
2022/01/26 19:06:24;;;;;;;;;;;;;;;-0.61;87.61;97843.63;5095941;28;20539;-74
2022/01/26 19:08:50;;;;;;;;;;;;;;;-0.57;87.36;97839.91;5078143;28;20310;-74
2022/01/26 19:11:17;;;;;;;;;;;;;;;-0.52;87.26;97832.66;5095761;28;19966;-74
2022/01/26 19:13:45;;;;;;;;;;;;;;;-0.49;87.06;97831.63;5095029;28;19964;-75